Time;durP1;ratioP1;P1;durP2;ratioP2;P2;SDS_P1;SDS_P2;PMS_P1;PMS_P2;Temp;Humidity;BMP_temperature;BMP_pressure;BME280_temperature;BME280_humidity;BME280_pressure;Samples;Min_cycle;Max_cycle;Signal;HPM_P1;HPM_P2
2022/12/20 00:00:45;;;;;;;;;;;;;;;20.97;20.45;100003.91;5115585;28;1902;-75
2022/12/20 00:03:11;;;;;;;;;;;;;;;21.11;20.46;100005.25;5117976;28;961;-76
2022/12/20 00:05:37;;;;;;;;;;;;;;;21.14;20.38;100008.09;5119668;28;1180;-76
2022/12/20 00:08:02;;;;;;;;;;;;;;;21.23;20.20;100017.06;5119567;28;914;-76
2022/12/20 00:10:28;;;;;;;;;;;;;;;21.03;20.44;100013.66;5100456;28;1007;-76
2022/12/20 00:12:53;;;;;;;;;;;;;;;21.13;20.26;100012.13;5119254;28;1169;-76
2022/12/20 00:15:19;;;;;;;;;;;;;;;20.96;20.71;100024.13;5100354;28;918;-76
2022/12/20 00:17:44;;;;;;;;;;;;;;;20.97;20.90;100025.75;5119093;28;916;-75
2022/12/20 00:20:10;;;;;;;;;;;;;;;21.27;20.24;100022.75;5119196;28;931;-76
2022/12/20 00:22:36;;;;;;;;;;;;;;;21.53;19.86;100019.69;5119377;28;1974;-75
2022/12/20 00:25:02;;;;;;;;;;;;;;;21.12;20.38;100010.50;5119358;28;1047;-76
2022/12/20 00:27:27;;;;;;;;;;;;;;;20.96;20.75;100012.81;5119167;28;953;-76
2022/12/20 00:29:52;;;;;;;;;;;;;;;20.91;20.62;100011.16;5118137;28;906;-76
2022/12/20 00:32:18;;;;;;;;;;;;;;;21.10;20.42;100006.47;5119336;28;865;-76
2022/12/20 00:34:43;;;;;;;;;;;;;;;21.25;20.22;100009.00;5117801;28;1213;-76
2022/12/20 00:37:09;;;;;;;;;;;;;;;21.39;20.17;100010.31;5118299;28;1070;-76
2022/12/20 00:39:34;;;;;;;;;;;;;;;21.07;20.61;100003.19;5118941;28;896;-76
2022/12/20 00:42:00;;;;;;;;;;;;;;;20.98;20.64;99996.25;5117850;28;1901;-76
2022/12/20 00:44:27;;;;;;;;;;;;;;;21.04;20.67;99997.53;5118770;28;957;-76
2022/12/20 00:46:52;;;;;;;;;;;;;;;21.17;20.58;99995.97;5119281;28;952;-76
2022/12/20 00:49:18;;;;;;;;;;;;;;;21.36;20.19;99988.47;5118806;28;908;-76
2022/12/20 00:51:44;;;;;;;;;;;;;;;21.08;20.73;99987.00;5118374;28;865;-76
2022/12/20 00:54:09;;;;;;;;;;;;;;;20.91;20.86;99982.03;5117592;28;1130;-76
2022/12/20 00:56:35;;;;;;;;;;;;;;;20.91;20.70;99982.84;5100455;28;1579;-76
2022/12/20 00:59:00;;;;;;;;;;;;;;;20.96;21.04;99984.50;5117190;28;909;-76
2022/12/20 01:01:27;;;;;;;;;;;;;;;21.21;20.48;99984.69;5117292;28;1925;-76
2022/12/20 01:03:52;;;;;;;;;;;;;;;21.16;20.31;99983.03;5118572;28;912;-76
2022/12/20 01:06:18;;;;;;;;;;;;;;;21.01;20.64;99975.66;5100201;28;1264;-76
2022/12/20 01:08:43;;;;;;;;;;;;;;;20.98;20.64;99979.25;5117736;28;1611;-76
2022/12/20 01:11:15;;;;;;;;;;;;;;;21.19;20.70;99979.44;5100330;28;1110;-75
2022/12/20 01:13:42;;;;;;;;;;;;;;;21.25;20.61;99975.00;5116277;28;1304;-76
2022/12/20 01:16:08;;;;;;;;;;;;;;;21.31;20.28;99972.66;5117143;28;912;-76
2022/12/20 01:18:35;;;;;;;;;;;;;;;21.27;20.35;99972.59;5118209;27;1045;-76
2022/12/20 01:21:01;;;;;;;;;;;;;;;21.30;20.35;99965.38;5117131;28;1897;-75
2022/12/20 01:23:26;;;;;;;;;;;;;;;21.06;20.49;99964.78;5117098;28;1114;-75
2022/12/20 01:25:52;;;;;;;;;;;;;;;20.93;20.76;99951.31;5117340;28;1233;-76
2022/12/20 01:28:17;;;;;;;;;;;;;;;21.06;20.67;99953.44;5118466;28;920;-75
2022/12/20 01:30:43;;;;;;;;;;;;;;;21.14;20.46;99943.00;5099170;28;926;-76
2022/12/20 01:33:08;;;;;;;;;;;;;;;21.19;20.51;99942.63;5118000;27;975;-76
2022/12/20 01:35:34;;;;;;;;;;;;;;;20.99;20.61;99939.28;5117132;28;830;-76
2022/12/20 01:37:59;;;;;;;;;;;;;;;20.72;21.04;99923.69;5117228;28;1256;-76
2022/12/20 01:40:25;;;;;;;;;;;;;;;20.55;21.19;99914.69;5100012;28;1203;-76
2022/12/20 01:42:51;;;;;;;;;;;;;;;21.08;20.55;99919.09;5118351;28;1914;-76
2022/12/20 01:45:19;;;;;;;;;;;;;;;21.20;20.33;99918.78;5115385;28;1093;-76
2022/12/20 01:47:45;;;;;;;;;;;;;;;21.55;20.08;99914.50;5115602;28;973;-76
2022/12/20 01:50:10;;;;;;;;;;;;;;;21.59;19.85;99920.97;5098439;28;1163;-76
2022/12/20 01:52:37;;;;;;;;;;;;;;;21.14;20.50;99905.38;5115355;28;1016;-76
2022/12/20 01:55:07;;;;;;;;;;;;;;;20.69;21.00;99905.50;5098174;28;975;-75
2022/12/20 01:57:52;;;;;;;;;;;;;;;20.99;20.79;99910.16;5081479;28;1190;-76
2022/12/20 02:00:38;;;;;;;;;;;;;;;21.25;20.37;99895.75;5040225;28;1918;-76
2022/12/20 02:03:04;;;;;;;;;;;;;;;21.25;20.36;99907.06;5021207;28;931;-75
2022/12/20 02:05:33;;;;;;;;;;;;;;;21.13;20.52;99898.09;5037859;28;1151;-76
2022/12/20 02:07:58;;;;;;;;;;;;;;;20.75;20.95;99900.28;5054762;28;993;-75
2022/12/20 02:10:26;;;;;;;;;;;;;;;20.84;20.86;99897.13;5014168;28;1077;-76
2022/12/20 02:12:53;;;;;;;;;;;;;;;21.40;20.13;99884.47;4981776;28;1239;-76
2022/12/20 02:15:25;;;;;;;;;;;;;;;21.26;20.47;99886.03;4981819;28;1187;-76
2022/12/20 02:18:06;;;;;;;;;;;;;;;21.32;20.27;99890.13;5014728;28;902;-76
2022/12/20 02:20:49;;;;;;;;;;;;;;;20.98;20.64;99880.22;4998138;28;1906;-76
2022/12/20 02:23:19;;;;;;;;;;;;;;;21.00;20.62;99883.47;4998024;28;1022;-76
2022/12/20 02:25:51;;;;;;;;;;;;;;;20.78;20.86;99889.00;4997920;28;1007;-76
2022/12/20 02:28:17;;;;;;;;;;;;;;;20.64;21.38;99880.41;5014586;28;1156;-76
2022/12/20 02:30:42;;;;;;;;;;;;;;;20.75;21.03;99878.47;5004591;28;1276;-76
2022/12/20 02:33:09;;;;;;;;;;;;;;;21.06;20.66;99881.88;5057493;28;926;-76
2022/12/20 02:35:35;;;;;;;;;;;;;;;21.12;20.61;99880.28;5057109;28;1126;-76
2022/12/20 02:38:04;;;;;;;;;;;;;;;21.44;20.44;99885.31;5056785;28;1289;-76
2022/12/20 02:40:39;;;;;;;;;;;;;;;20.91;20.78;99888.66;5056185;28;1297;-76
2022/12/20 02:45:14;;;;;;;;;;;;;;;20.77;20.90;99880.88;5057098;28;1138;-75
2022/12/20 02:45:50;;;;;;;;;;;;;;;20.75;21.01;99884.13;5057120;28;1375;-76
2022/12/20 02:48:16;;;;;;;;;;;;;;;20.72;21.32;99887.72;5057222;28;1402;-76
2022/12/20 02:50:48;;;;;;;;;;;;;;;20.93;21.06;99877.75;5056920;28;1122;-76
2022/12/20 02:53:14;;;;;;;;;;;;;;;21.04;20.88;99881.47;5036937;28;1611;-75
2022/12/20 02:55:45;;;;;;;;;;;;;;;21.28;20.46;99877.94;5036656;28;1275;-76
2022/12/20 02:58:26;;;;;;;;;;;;;;;20.99;20.84;99876.19;5020493;28;1513;-76
2022/12/20 03:00:51;;;;;;;;;;;;;;;20.66;21.26;99868.69;5036632;28;1983;-76
2022/12/20 03:03:23;;;;;;;;;;;;;;;21.03;20.80;99877.00;5020554;28;1170;-75
2022/12/20 03:05:49;;;;;;;;;;;;;;;21.29;20.41;99871.06;5037309;28;952;-76
2022/12/20 03:08:17;;;;;;;;;;;;;;;21.54;20.12;99876.06;5020479;28;1153;-76
2022/12/20 03:10:43;;;;;;;;;;;;;;;21.02;20.80;99873.38;5040188;28;1243;-76
2022/12/20 03:13:08;;;;;;;;;;;;;;;20.78;21.37;99871.22;5073158;28;1544;-76
2022/12/20 03:15:37;;;;;;;;;;;;;;;20.88;21.12;99869.63;5056794;28;1178;-76
2022/12/20 03:18:03;;;;;;;;;;;;;;;21.21;20.74;99872.25;5073266;28;1028;-76
2022/12/20 03:20:28;;;;;;;;;;;;;;;21.20;20.38;99870.63;5056526;28;1230;-75
2022/12/20 03:22:54;;;;;;;;;;;;;;;21.03;21.01;99871.34;5056467;28;1914;-76
2022/12/20 03:25:20;;;;;;;;;;;;;;;20.75;21.18;99864.31;5112357;28;1677;-76
2022/12/20 03:27:46;;;;;;;;;;;;;;;20.57;21.27;99860.53;5115012;28;1154;-76
2022/12/20 03:30:11;;;;;;;;;;;;;;;20.96;21.00;99862.81;5098117;28;1110;-75
2022/12/20 03:32:37;;;;;;;;;;;;;;;21.29;20.47;99868.22;5114871;28;1205;-76
2022/12/20 03:35:03;;;;;;;;;;;;;;;21.15;20.52;99856.88;5116225;28;866;-76
2022/12/20 03:37:34;;;;;;;;;;;;;;;20.98;20.78;99863.22;5114433;28;1198;-76
2022/12/20 03:40:02;;;;;;;;;;;;;;;20.96;20.82;99868.47;5098461;28;1117;-76
2022/12/20 03:42:28;;;;;;;;;;;;;;;21.35;20.45;99859.38;5114772;28;1974;-76
2022/12/20 03:44:54;;;;;;;;;;;;;;;21.22;20.54;99865.38;5114807;28;1129;-76
2022/12/20 03:47:21;;;;;;;;;;;;;;;21.33;20.59;99857.78;5114705;28;1233;-76
2022/12/20 03:49:47;;;;;;;;;;;;;;;21.07;20.85;99860.84;5114963;28;1021;-76
2022/12/20 03:52:12;;;;;;;;;;;;;;;20.65;21.11;99850.91;5114750;28;1746;-76
2022/12/20 03:54:38;;;;;;;;;;;;;;;21.30;20.41;99869.91;5114644;28;1138;-76
2022/12/20 03:57:08;;;;;;;;;;;;;;;21.22;20.45;99862.56;5114698;28;1101;-76
2022/12/20 03:59:34;;;;;;;;;;;;;;;20.94;20.77;99873.75;5115865;28;948;-76
2022/12/20 04:02:00;;;;;;;;;;;;;;;20.98;20.90;99869.69;5098015;28;1905;-76
2022/12/20 04:04:28;;;;;;;;;;;;;;;21.18;20.58;99873.03;5114691;28;1476;-76
2022/12/20 04:06:53;;;;;;;;;;;;;;;21.29;20.53;99873.88;5114590;28;1032;-76
2022/12/20 04:09:19;;;;;;;;;;;;;;;21.18;20.53;99867.38;5114631;28;1053;-76
2022/12/20 04:11:49;;;;;;;;;;;;;;;20.93;20.89;99872.09;5098001;28;1204;-76
2022/12/20 04:14:14;;;;;;;;;;;;;;;20.87;21.06;99865.19;5114783;28;1201;-76
2022/12/20 04:16:42;;;;;;;;;;;;;;;21.19;20.66;99859.69;5097884;28;1070;-76
2022/12/20 04:19:08;;;;;;;;;;;;;;;21.06;20.82;99857.22;5098027;28;1374;-76
2022/12/20 04:21:39;;;;;;;;;;;;;;;21.32;20.60;99858.19;5098265;28;1905;-76
2022/12/20 04:24:05;;;;;;;;;;;;;;;21.00;20.74;99855.97;5114367;28;1143;-76
2022/12/20 04:26:42;;;;;;;;;;;;;;;20.86;21.01;99863.56;5082706;28;1154;-76
2022/12/20 04:29:09;;;;;;;;;;;;;;;20.93;21.30;99866.44;5114392;28;1271;-76
2022/12/20 04:31:35;;;;;;;;;;;;;;;21.31;20.83;99865.88;5114445;28;1313;-76
2022/12/20 04:34:00;;;;;;;;;;;;;;;21.37;20.30;99869.13;5097274;28;1261;-75
2022/12/20 04:36:29;;;;;;;;;;;;;;;21.46;20.45;99860.25;5112155;28;1632;-76
2022/12/20 04:38:56;;;;;;;;;;;;;;;21.30;20.60;99861.41;5099496;28;1674;-76
2022/12/20 04:41:22;;;;;;;;;;;;;;;20.93;20.75;99858.75;5114460;28;1965;-76
2022/12/20 04:43:51;;;;;;;;;;;;;;;20.92;20.90;99848.66;5097570;28;1275;-76
2022/12/20 04:46:18;;;;;;;;;;;;;;;20.99;20.88;99860.03;5097604;28;1404;-76
2022/12/20 04:48:44;;;;;;;;;;;;;;;21.17;20.80;99865.75;5114226;28;1314;-76
2022/12/20 04:51:09;;;;;;;;;;;;;;;21.30;20.46;99858.59;5117777;28;1151;-76
2022/12/20 04:53:47;;;;;;;;;;;;;;;21.06;20.92;99862.06;5115805;28;1496;-76
2022/12/20 04:56:21;;;;;;;;;;;;;;;20.81;21.03;99859.09;5117494;28;1162;-76
2022/12/20 04:58:47;;;;;;;;;;;;;;;20.73;21.37;99854.63;5119059;28;985;-76
2022/12/20 05:01:13;;;;;;;;;;;;;;;20.97;20.98;99855.94;5117738;28;1926;-75
2022/12/20 05:03:45;;;;;;;;;;;;;;;21.20;20.54;99859.31;5100748;28;1507;-76
2022/12/20 05:06:13;;;;;;;;;;;;;;;21.35;20.47;99862.22;5118585;28;924;-76
2022/12/20 05:08:38;;;;;;;;;;;;;;;20.96;21.05;99860.00;5100638;28;1290;-76
2022/12/20 05:11:04;;;;;;;;;;;;;;;20.86;21.18;99857.91;5117529;28;931;-76
2022/12/20 05:13:30;;;;;;;;;;;;;;;20.65;21.31;99856.56;5100473;28;1126;-76
2022/12/20 05:15:56;;;;;;;;;;;;;;;20.93;21.27;99860.78;5100350;28;1172;-76
2022/12/20 05:18:25;;;;;;;;;;;;;;;21.29;20.82;99845.56;5113732;28;1497;-76
2022/12/20 05:26:29;;;;;;;;;;;;;;;20.80;21.23;99861.13;5099294;28;1921;-76
2022/12/20 05:28:54;;;;;;;;;;;;;;;21.02;21.06;99862.03;5096927;28;1146;-76
2022/12/20 05:31:20;;;;;;;;;;;;;;;21.04;20.82;99861.66;5096933;28;1149;-76
2022/12/20 05:33:45;;;;;;;;;;;;;;;21.06;20.76;99862.06;5096712;28;1145;-76
2022/12/20 05:36:11;;;;;;;;;;;;;;;21.17;20.64;99860.09;5079793;28;1375;-76
2022/12/20 05:38:37;;;;;;;;;;;;;;;20.92;21.07;99862.00;5094660;28;1887;-76
2022/12/20 05:41:10;;;;;;;;;;;;;;;20.73;21.06;99863.09;5062710;28;1902;-76
2022/12/20 05:43:36;;;;;;;;;;;;;;;21.11;20.91;99856.03;5062440;28;1225;-76
2022/12/20 05:46:03;;;;;;;;;;;;;;;21.08;20.71;99865.31;5058409;28;1412;-76
2022/12/20 05:48:37;;;;;;;;;;;;;;;21.29;20.54;99862.56;5058505;28;1649;-76
2022/12/20 05:51:04;;;;;;;;;;;;;;;21.22;20.85;99856.09;5058488;28;1592;-75
2022/12/20 05:53:31;;;;;;;;;;;;;;;20.83;21.20;99845.38;5057982;28;1188;-76
2022/12/20 05:56:00;;;;;;;;;;;;;;;20.56;21.41;99856.09;5058164;28;1232;-76
2022/12/20 05:58:30;;;;;;;;;;;;;;;20.61;21.27;99850.06;5042083;28;1118;-76
2022/12/20 06:01:01;;;;;;;;;;;;;;;20.62;21.52;99854.53;5042144;28;1977;-76
2022/12/20 06:03:27;;;;;;;;;;;;;;;21.07;20.89;99860.84;5041431;28;1249;-76
2022/12/20 06:05:53;;;;;;;;;;;;;;;20.99;20.94;99862.03;5057618;28;1142;-76
2022/12/20 06:08:26;;;;;;;;;;;;;;;21.14;20.94;99855.25;5058455;28;1234;-76
2022/12/20 06:10:53;;;;;;;;;;;;;;;20.92;21.26;99864.81;5079405;28;1673;-76
2022/12/20 06:13:20;;;;;;;;;;;;;;;20.71;21.16;99857.81;5093583;28;1218;-76
2022/12/20 06:15:47;;;;;;;;;;;;;;;20.66;21.40;99855.38;5079181;28;1489;-76
2022/12/20 06:18:12;;;;;;;;;;;;;;;21.03;20.88;99855.16;5086248;28;1723;-76
2022/12/20 06:20:38;;;;;;;;;;;;;;;21.15;20.67;99856.88;5097900;28;1726;-76
2022/12/20 06:23:06;;;;;;;;;;;;;;;21.42;20.47;99860.25;5099128;28;1260;-76
2022/12/20 06:25:38;;;;;;;;;;;;;;;20.96;20.77;99865.66;5099744;28;1428;-76
2022/12/20 06:28:06;;;;;;;;;;;;;;;20.57;21.28;99854.88;5115831;28;1227;-76
2022/12/20 06:30:32;;;;;;;;;;;;;;;20.82;21.06;99860.72;5098880;28;1155;-76
2022/12/20 06:33:06;;;;;;;;;;;;;;;20.92;21.02;99865.63;5099777;28;1144;-76
2022/12/20 06:35:31;;;;;;;;;;;;;;;21.16;21.05;99869.81;5116443;28;1484;-76
2022/12/20 06:37:58;;;;;;;;;;;;;;;21.22;20.54;99865.38;5098888;28;1395;-76
2022/12/20 06:40:23;;;;;;;;;;;;;;;20.89;21.03;99871.28;5115757;28;1280;-75
2022/12/20 06:42:52;;;;;;;;;;;;;;;20.84;21.40;99869.63;5097013;28;1906;-76
2022/12/20 06:45:21;;;;;;;;;;;;;;;21.00;21.22;99866.50;5115868;27;1709;-76
2022/12/20 06:47:46;;;;;;;;;;;;;;;21.14;20.78;99869.41;5098837;28;1346;-76
2022/12/20 06:50:12;;;;;;;;;;;;;;;21.22;20.92;99873.88;5115702;28;1784;-76
2022/12/20 06:52:37;;;;;;;;;;;;;;;21.32;20.56;99866.66;5115584;28;1182;-76
2022/12/20 06:55:03;;;;;;;;;;;;;;;21.25;20.67;99870.25;5115496;28;1049;-76
2022/12/20 06:57:32;;;;;;;;;;;;;;;20.83;21.12;99872.84;5094368;28;1398;-76
2022/12/20 06:59:58;;;;;;;;;;;;;;;20.84;21.30;99874.50;5096297;28;1209;-76
2022/12/20 07:02:23;;;;;;;;;;;;;;;21.05;21.16;99874.59;5095406;28;1913;-76
2022/12/20 07:04:49;;;;;;;;;;;;;;;21.17;20.89;99865.75;5115532;28;1859;-76
2022/12/20 07:07:16;;;;;;;;;;;;;;;21.25;20.85;99873.09;5114673;28;1140;-76
2022/12/20 07:09:41;;;;;;;;;;;;;;;20.99;21.15;99864.88;5098216;28;1746;-76
2022/12/20 07:12:07;;;;;;;;;;;;;;;20.86;21.18;99857.91;5115286;28;1019;-76
2022/12/20 07:14:33;;;;;;;;;;;;;;;21.06;20.89;99864.91;5093209;28;1606;-76
2022/12/20 07:16:59;;;;;;;;;;;;;;;21.10;20.92;99864.94;5116445;28;1835;-76
2022/12/20 07:19:24;;;;;;;;;;;;;;;21.18;20.97;99863.75;5114347;28;1582;-76
2022/12/20 07:21:49;;;;;;;;;;;;;;;21.10;21.09;99862.91;5115477;28;1910;-76
2022/12/20 07:24:15;;;;;;;;;;;;;;;20.94;21.36;99868.09;5115717;28;1503;-76
2022/12/20 07:26:42;;;;;;;;;;;;;;;20.88;21.21;99861.16;5113527;28;1495;-76
2022/12/20 07:29:08;;;;;;;;;;;;;;;20.76;20.94;99823.50;5116403;28;927;-76
2022/12/20 07:31:33;;;;;;;;;;;;;;;21.28;21.07;99854.47;5115396;28;1419;-76
2022/12/20 07:33:59;;;;;;;;;;;;;;;21.25;20.89;99853.28;5115167;28;1625;-76
2022/12/20 07:36:24;;;;;;;;;;;;;;;21.08;21.14;99851.16;5116490;28;971;-76
2022/12/20 07:38:49;;;;;;;;;;;;;;;20.67;21.79;99837.19;5116212;28;890;-76
2022/12/20 07:41:16;;;;;;;;;;;;;;;20.90;21.46;99845.41;5115814;28;1901;-76
2022/12/20 07:43:42;;;;;;;;;;;;;;;20.95;21.25;99844.22;5115737;28;898;-76
2022/12/20 07:46:07;;;;;;;;;;;;;;;21.20;21.04;99850.81;5114477;28;1429;-76
2022/12/20 07:48:33;;;;;;;;;;;;;;;21.20;20.90;99848.00;5115169;28;1593;-76
2022/12/20 07:51:00;;;;;;;;;;;;;;;21.01;21.09;99839.81;5116412;28;888;-76
2022/12/20 07:53:25;;;;;;;;;;;;;;;20.87;21.33;99834.88;5115660;28;897;-76
2022/12/20 07:55:51;;;;;;;;;;;;;;;21.26;20.95;99834.25;5116135;28;907;-76
2022/12/20 07:58:17;;;;;;;;;;;;;;;21.17;21.06;99823.31;5115220;28;1592;-76
2022/12/20 08:00:43;;;;;;;;;;;;;;;21.28;20.94;99815.66;5115677;28;1917;-76
2022/12/20 08:03:22;;;;;;;;;;;;;;;21.37;20.88;99814.50;5113762;28;1451;-76
2022/12/20 08:05:48;;;;;;;;;;;;;;;21.04;21.17;99827.72;5114679;28;986;-76
2022/12/20 08:08:14;;;;;;;;;;;;;;;20.71;21.66;99826.72;5079907;28;893;-76
2022/12/20 08:10:40;;;;;;;;;;;;;;;21.24;21.07;99823.34;5115739;28;1001;-75
2022/12/20 08:13:05;;;;;;;;;;;;;;;21.13;21.33;99830.16;5114660;28;1014;-76
2022/12/20 08:15:31;;;;;;;;;;;;;;;21.45;20.59;99822.63;5114456;28;1151;-76
2022/12/20 08:17:56;;;;;;;;;;;;;;;21.14;20.92;99829.78;5113544;28;1504;-76
2022/12/20 08:20:22;;;;;;;;;;;;;;;20.97;21.31;99824.81;5096518;28;1421;-76
2022/12/20 08:22:47;;;;;;;;;;;;;;;20.67;21.94;99831.53;5115839;28;1905;-76
2022/12/20 08:25:13;;;;;;;;;;;;;;;21.20;21.39;99831.00;5098909;28;1495;-76
2022/12/20 08:27:38;;;;;;;;;;;;;;;21.20;21.31;99819.69;5118037;28;1484;-76
2022/12/20 08:30:04;;;;;;;;;;;;;;;21.16;21.24;99818.84;5118067;28;1003;-76
2022/12/20 08:32:29;;;;;;;;;;;;;;;21.51;20.82;99817.38;5076709;28;1058;-76
2022/12/20 08:34:55;;;;;;;;;;;;;;;21.51;20.74;99811.72;5076397;28;929;-76
2022/12/20 08:37:20;;;;;;;;;;;;;;;20.95;21.39;99825.22;5076323;28;1113;-76
2022/12/20 08:39:46;;;;;;;;;;;;;;;20.90;21.42;99816.31;5059726;28;1012;-76
2022/12/20 08:42:11;;;;;;;;;;;;;;;21.00;21.34;99804.22;5057017;28;1911;-76
2022/12/20 08:44:37;;;;;;;;;;;;;;;21.24;21.09;99795.03;5057657;28;1462;-76
2022/12/20 08:47:02;;;;;;;;;;;;;;;21.27;21.05;99796.25;5075824;28;1013;-76
2022/12/20 08:49:28;;;;;;;;;;;;;;;21.23;21.29;99793.38;5075955;28;986;-76
2022/12/20 08:51:53;;;;;;;;;;;;;;;20.91;21.67;99792.47;5075974;28;1018;-76
2022/12/20 08:54:19;;;;;;;;;;;;;;;20.93;21.57;99787.19;5075826;28;952;-76
2022/12/20 08:56:44;;;;;;;;;;;;;;;20.86;21.65;99787.19;5076115;28;993;-76
2022/12/20 08:59:09;;;;;;;;;;;;;;;21.11;21.25;99782.44;5074805;28;1473;-76
2022/12/20 09:01:35;;;;;;;;;;;;;;;21.39;20.98;99772.44;5075914;28;1906;-76
2022/12/20 09:04:00;;;;;;;;;;;;;;;21.24;21.19;99772.38;5106950;28;929;-76
2022/12/20 09:06:26;;;;;;;;;;;;;;;20.95;21.78;99770.66;5118792;28;880;-76
2022/12/20 09:08:51;;;;;;;;;;;;;;;20.81;22.01;99763.72;5119165;28;1046;-76
2022/12/20 09:11:18;;;;;;;;;;;;;;;21.28;21.18;99753.38;5117847;28;953;-76
2022/12/20 09:13:43;;;;;;;;;;;;;;;21.37;21.32;99752.22;5115924;28;2472;-76
2022/12/20 09:16:09;;;;;;;;;;;;;;;21.11;21.26;99748.47;5118703;28;863;-76
2022/12/20 09:18:34;;;;;;;;;;;;;;;20.89;21.78;99752.44;5117282;28;928;-76
2022/12/20 09:21:00;;;;;;;;;;;;;;;20.91;21.70;99750.03;5118411;28;1898;-76
2022/12/20 09:23:26;;;;;;;;;;;;;;;20.99;21.79;99751.69;5118935;28;1001;-76
2022/12/20 09:25:51;;;;;;;;;;;;;;;21.27;21.38;99746.09;5118443;28;1067;-76
2022/12/20 09:28:17;;;;;;;;;;;;;;;21.26;21.24;99740.84;5117444;28;1559;-76
2022/12/20 09:30:43;;;;;;;;;;;;;;;21.09;21.68;99739.59;5117897;28;1471;-76
2022/12/20 09:33:08;;;;;;;;;;;;;;;20.70;22.21;99740.22;5117664;27;1549;-76
2022/12/20 09:35:34;;;;;;;;;;;;;;;20.66;22.16;99739.41;5116148;28;860;-76
2022/12/20 09:37:59;;;;;;;;;;;;;;;21.07;21.67;99725.00;5118408;27;1075;-76
2022/12/20 09:40:26;;;;;;;;;;;;;;;21.17;21.44;99721.38;5118433;28;1053;-76
2022/12/20 09:42:52;;;;;;;;;;;;;;;21.20;21.46;99723.44;5099909;28;1980;-76
2022/12/20 09:45:27;;;;;;;;;;;;;;;21.10;21.74;99729.88;5116033;28;1404;-76
2022/12/20 09:47:52;;;;;;;;;;;;;;;20.77;21.95;99719.63;5116845;28;993;-76
2022/12/20 09:50:18;;;;;;;;;;;;;;;20.86;21.98;99725.75;5098658;28;926;-76
2022/12/20 09:52:52;;;;;;;;;;;;;;;21.17;21.70;99718.56;5116795;28;907;-76
2022/12/20 09:55:21;;;;;;;;;;;;;;;21.45;21.44;99708.53;5116365;28;977;-76
2022/12/20 09:57:49;;;;;;;;;;;;;;;21.32;21.47;99703.25;5117637;28;938;-76
2022/12/20 10:00:16;;;;;;;;;;;;;;;20.94;21.86;99709.63;5117231;28;1689;-75
2022/12/20 10:02:42;;;;;;;;;;;;;;;20.75;22.17;99703.06;5116448;28;1977;-76
2022/12/20 10:05:14;;;;;;;;;;;;;;;21.08;22.08;99703.97;5116755;28;961;-75
2022/12/20 10:07:54;;;;;;;;;;;;;;;21.23;21.82;99694.31;5098630;28;1577;-75
2022/12/20 10:10:35;;;;;;;;;;;;;;;21.04;21.95;99692.66;5116310;28;922;-76
2022/12/20 10:13:12;;;;;;;;;;;;;;;20.99;21.89;99692.25;5117443;28;1029;-75
2022/12/20 10:15:59;;;;;;;;;;;;;;;20.99;21.81;99689.41;5098233;28;2098;-76
2022/12/20 10:18:43;;;;;;;;;;;;;;;21.36;21.54;99685.47;5117197;28;981;-76
2022/12/20 10:21:26;;;;;;;;;;;;;;;21.47;21.56;99680.63;5117176;28;1972;-75
2022/12/20 10:24:01;;;;;;;;;;;;;;;21.17;21.64;99684.59;5114923;28;1568;-75
2022/12/20 10:26:27;;;;;;;;;;;;;;;20.94;21.93;99678.50;5116448;28;900;-76
2022/12/20 10:28:52;;;;;;;;;;;;;;;20.90;22.11;99675.66;5117470;28;1029;-76
2022/12/20 10:31:18;;;;;;;;;;;;;;;21.24;21.85;99673.31;5116237;28;921;-76
2022/12/20 10:33:43;;;;;;;;;;;;;;;21.37;21.38;99675.75;5116929;28;918;-76
2022/12/20 10:36:18;;;;;;;;;;;;;;;21.20;21.65;99661.16;5116116;28;916;-75
2022/12/20 10:38:44;;;;;;;;;;;;;;;20.98;22.06;99662.31;5116049;28;1537;-75
2022/12/20 10:41:13;;;;;;;;;;;;;;;20.91;22.09;99653.81;5081233;28;1989;-75
2022/12/20 10:43:40;;;;;;;;;;;;;;;21.15;22.09;99644.56;5098409;28;985;-76
2022/12/20 10:46:06;;;;;;;;;;;;;;;21.35;21.71;99644.19;5115768;28;1127;-76
2022/12/20 10:48:33;;;;;;;;;;;;;;;21.51;21.30;99641.78;5115581;28;1196;-75
2022/12/20 10:51:07;;;;;;;;;;;;;;;20.88;22.07;99654.59;5116624;28;1547;-76
2022/12/20 10:53:32;;;;;;;;;;;;;;;20.65;22.32;99630.31;5116018;28;1562;-76
2022/12/20 10:56:12;;;;;;;;;;;;;;;21.28;21.96;99644.97;5115453;28;1032;-76
2022/12/20 10:58:37;;;;;;;;;;;;;;;21.22;21.71;99636.06;5115750;28;915;-76
2022/12/20 11:01:04;;;;;;;;;;;;;;;21.36;21.74;99628.84;5115086;28;1918;-76
2022/12/20 11:03:29;;;;;;;;;;;;;;;20.94;22.12;99624.72;5116695;28;948;-76
2022/12/20 11:06:00;;;;;;;;;;;;;;;20.61;22.54;99621.00;5116534;28;945;-76
2022/12/20 11:08:26;;;;;;;;;;;;;;;20.70;22.85;99615.78;5114287;28;1668;-75
2022/12/20 11:11:11;;;;;;;;;;;;;;;20.81;22.10;99536.59;5116520;28;1306;-76
2022/12/20 11:13:37;;;;;;;;;;;;;;;21.33;21.86;99605.78;5116450;28;1074;-75
2022/12/20 11:16:02;;;;;;;;;;;;;;;21.20;21.73;99606.56;5115722;28;992;-75
2022/12/20 11:18:37;;;;;;;;;;;;;;;21.14;22.17;99600.50;5116516;28;901;-76
2022/12/20 11:21:05;;;;;;;;;;;;;;;20.91;22.15;99600.06;5114745;28;2610;-76
2022/12/20 11:23:49;;;;;;;;;;;;;;;21.22;21.78;99596.44;5114234;28;1535;-75
2022/12/20 11:26:14;;;;;;;;;;;;;;;21.18;21.90;99592.78;5116366;28;1159;-76
2022/12/20 11:28:49;;;;;;;;;;;;;;;21.01;22.11;99591.56;5116100;28;970;-75
2022/12/20 11:31:15;;;;;;;;;;;;;;;20.76;22.54;99583.03;5115896;28;1012;-75
2022/12/20 11:33:47;;;;;;;;;;;;;;;20.53;23.04;99576.94;5073367;28;976;-75
2022/12/20 11:36:16;;;;;;;;;;;;;;;20.97;22.42;99572.97;5073081;28;1019;-75
2022/12/20 11:38:46;;;;;;;;;;;;;;;21.06;22.51;99565.72;5023048;28;1407;-75
2022/12/20 11:41:18;;;;;;;;;;;;;;;21.23;22.18;99564.09;5036362;28;1906;-75
2022/12/20 11:43:47;;;;;;;;;;;;;;;21.09;22.13;99558.44;5036648;28;948;-75
2022/12/20 11:46:34;;;;;;;;;;;;;;;20.72;22.86;99556.78;5052535;28;1225;-76
2022/12/20 11:49:14;;;;;;;;;;;;;;;20.72;22.91;99550.31;5036300;28;1101;-76
2022/12/20 11:51:42;;;;;;;;;;;;;;;20.96;22.67;99557.22;5036863;28;1535;-76
2022/12/20 11:54:08;;;;;;;;;;;;;;;20.96;22.33;99549.53;5073156;28;930;-75
2022/12/20 11:56:36;;;;;;;;;;;;;;;21.11;22.36;99543.88;5073108;28;907;-76
2022/12/20 11:59:06;;;;;;;;;;;;;;;21.30;22.22;99541.47;5057867;28;991;-76
2022/12/20 12:01:40;;;;;;;;;;;;;;;20.89;22.52;99543.06;5043409;28;1995;-76
2022/12/20 12:04:40;;;;;;;;;;;;;;;20.81;22.92;99543.03;5055072;28;940;-75
2022/12/20 12:07:15;;;;;;;;;;;;;;;20.50;23.20;99536.13;5012302;28;1523;-75
2022/12/20 12:09:45;;;;;;;;;;;;;;;20.96;22.74;99531.75;5016512;28;1625;-76
2022/12/20 12:12:17;;;;;;;;;;;;;;;21.08;22.35;99537.00;5036957;28;1383;-76
2022/12/20 12:14:57;;;;;;;;;;;;;;;21.11;22.40;99533.38;5036690;28;1012;-76
2022/12/20 12:17:25;;;;;;;;;;;;;;;20.96;22.45;99540.22;5036783;28;1053;-76
2022/12/20 12:19:50;;;;;;;;;;;;;;;20.87;22.62;99537.00;5036475;28;1012;-76
2022/12/20 12:22:18;;;;;;;;;;;;;;;20.76;23.08;99537.78;5036660;28;1901;-75
2022/12/20 12:24:45;;;;;;;;;;;;;;;20.94;22.54;99528.53;5019491;28;1519;-75
2022/12/20 12:27:28;;;;;;;;;;;;;;;21.27;22.16;99530.91;5036568;28;1070;-76
2022/12/20 12:29:55;;;;;;;;;;;;;;;21.35;22.42;99528.94;5036245;28;871;-76
2022/12/20 12:32:26;;;;;;;;;;;;;;;21.03;22.68;99534.56;5036409;28;1045;-76
2022/12/20 12:34:54;;;;;;;;;;;;;;;20.79;22.92;99522.84;5036253;28;1019;-76
2022/12/20 12:37:31;;;;;;;;;;;;;;;20.53;23.32;99526.84;5036166;28;1720;-76
2022/12/20 12:40:02;;;;;;;;;;;;;;;20.98;22.76;99526.47;5038154;28;1056;-76
2022/12/20 12:42:46;;;;;;;;;;;;;;;20.99;22.50;99525.28;5084780;28;1984;-75
2022/12/20 12:45:18;;;;;;;;;;;;;;;21.17;22.54;99519.59;5117738;28;906;-75
2022/12/20 12:47:44;;;;;;;;;;;;;;;21.30;22.30;99524.50;5118115;28;1055;-76
2022/12/20 12:50:39;;;;;;;;;;;;;;;20.88;22.69;99515.97;5119476;28;945;-76
2022/12/20 12:53:06;;;;;;;;;;;;;;;20.60;23.37;99520.41;5035373;28;1699;-76
2022/12/20 12:55:39;;;;;;;;;;;;;;;20.92;22.95;99526.06;4996520;28;1088;-76
2022/12/20 12:58:13;;;;;;;;;;;;;;;21.22;22.42;99520.00;4996404;28;1088;-76
2022/12/20 13:00:47;;;;;;;;;;;;;;;21.29;22.24;99514.31;4996639;28;939;-75
2022/12/20 13:03:15;;;;;;;;;;;;;;;20.91;22.66;99518.00;4996442;28;1922;-76
2022/12/20 13:05:41;;;;;;;;;;;;;;;20.58;23.16;99516.38;4996539;28;999;-75
2022/12/20 13:08:14;;;;;;;;;;;;;;;20.63;23.08;99518.81;4995978;28;1973;-75
2022/12/20 13:10:39;;;;;;;;;;;;;;;20.90;22.96;99513.56;4995192;28;949;-75